Time;durP1;ratioP1;P1;durP2;ratioP2;P2;SDS_P1;SDS_P2;PMS_P1;PMS_P2;Temp;Humidity;BMP_temperature;BMP_pressure;BME280_temperature;BME280_humidity;BME280_pressure;Samples;Min_cycle;Max_cycle;Signal;HPM_P1;HPM_P2
2022/04/30 00:00:29;;;;;;;;;;;;;;;18.78;60.20;99147.06;2086656;28;19933;-46
2022/04/30 00:01:30;;;;;;;;;;;;;;;18.74;60.34;99147.47;2085916;28;20359;-46
2022/04/30 00:02:31;;;;;;;;;;;;;;;18.77;60.31;99145.41;2080801;28;20294;-46
2022/04/30 00:03:32;;;;;;;;;;;;;;;18.74;60.31;99143.94;2085112;28;19932;-49
2022/04/30 00:04:35;;;;;;;;;;;;;;;18.73;60.31;99140.41;2085073;28;19933;-46
2022/04/30 00:05:37;;;;;;;;;;;;;;;18.72;60.36;99141.44;2087344;28;19937;-48
2022/04/30 00:06:37;;;;;;;;;;;;;;;18.75;60.58;99142.94;2082861;28;19932;-46
2022/04/30 00:07:39;;;;;;;;;;;;;;;18.73;60.30;99142.25;2068340;28;21130;-45
2022/04/30 00:08:39;;;;;;;;;;;;;;;18.73;60.26;99142.25;2083324;28;19932;-47
2022/04/30 00:09:42;;;;;;;;;;;;;;;18.74;60.17;99141.25;2086337;28;19978;-47
2022/04/30 00:10:42;;;;;;;;;;;;;;;18.72;60.37;99145.94;2083626;28;19981;-44
2022/04/30 00:11:44;;;;;;;;;;;;;;;18.72;60.19;99144.13;2084950;28;20006;-45
2022/04/30 00:12:44;;;;;;;;;;;;;;;18.71;60.28;99138.91;2086435;28;20015;-46
2022/04/30 00:13:46;;;;;;;;;;;;;;;18.72;60.30;99137.88;2081156;28;20473;-47
2022/04/30 00:14:47;;;;;;;;;;;;;;;18.71;60.44;99145.13;2087558;28;19929;-44
2022/04/30 00:15:48;;;;;;;;;;;;;;;18.73;60.27;99136.88;2086198;28;19929;-45
2022/04/30 00:16:49;;;;;;;;;;;;;;;18.72;60.14;99141.44;2085780;28;19928;-45
2022/04/30 00:17:51;;;;;;;;;;;;;;;18.70;60.39;99137.28;2085271;28;19931;-46
2022/04/30 00:18:51;;;;;;;;;;;;;;;18.72;60.47;99137.88;2079807;28;20011;-47
2022/04/30 00:19:54;;;;;;;;;;;;;;;18.71;60.25;99141.59;2084584;28;19956;-45
2022/04/30 00:20:58;;;;;;;;;;;;;;;18.71;60.33;99134.38;2087058;28;19982;-45
2022/04/30 00:21:59;;;;;;;;;;;;;;;18.70;60.38;99138.09;2087614;28;19932;-46
2022/04/30 00:23:00;;;;;;;;;;;;;;;18.70;60.45;99137.28;2082191;28;20035;-45
2022/04/30 00:24:00;;;;;;;;;;;;;;;18.69;60.38;99139.13;2086076;28;19964;-47
2022/04/30 00:25:02;;;;;;;;;;;;;;;18.72;60.34;99137.88;2087996;28;19939;-46
2022/04/30 00:26:03;;;;;;;;;;;;;;;18.71;60.11;99138.91;2088888;28;20011;-46
2022/04/30 00:27:05;;;;;;;;;;;;;;;18.70;60.29;99135.41;2079438;28;19935;-47
2022/04/30 00:28:06;;;;;;;;;;;;;;;18.70;60.66;99139.97;2082722;28;19982;-46
2022/04/30 00:29:07;;;;;;;;;;;;;;;18.68;60.41;99134.75;2084836;28;20577;-45
2022/04/30 00:30:09;;;;;;;;;;;;;;;18.70;60.39;99138.09;2089086;28;19928;-44
2022/04/30 00:31:10;;;;;;;;;;;;;;;18.69;60.42;99138.28;2084136;28;20014;-47
2022/04/30 00:32:11;;;;;;;;;;;;;;;18.69;60.40;99135.59;2090775;28;20422;-46
2022/04/30 00:33:13;;;;;;;;;;;;;;;18.69;60.08;99135.59;2085880;28;19931;-44
2022/04/30 00:34:13;;;;;;;;;;;;;;;18.69;60.23;99136.44;2091695;28;20805;-44
2022/04/30 00:35:16;;;;;;;;;;;;;;;18.68;60.44;99133.94;2090706;28;19939;-48
2022/04/30 00:36:17;;;;;;;;;;;;;;;18.67;60.46;99124.22;2088524;28;19929;-45
2022/04/30 00:37:18;;;;;;;;;;;;;;;18.68;60.37;99128.56;2086420;28;20372;-52
2022/04/30 00:38:19;;;;;;;;;;;;;;;18.67;60.40;99125.03;2087997;28;20479;-47
2022/04/30 00:39:20;;;;;;;;;;;;;;;18.67;60.30;99129.59;2087713;28;19963;-45
2022/04/30 00:40:22;;;;;;;;;;;;;;;18.67;60.14;99129.59;2088310;28;19936;-47
2022/04/30 00:41:23;;;;;;;;;;;;;;;18.68;60.13;99128.56;2086108;28;19940;-44
2022/04/30 00:42:24;;;;;;;;;;;;;;;18.67;60.34;99130.41;2086630;28;20040;-47
2022/04/30 00:43:25;;;;;;;;;;;;;;;18.68;60.06;99136.63;2085228;28;20287;-46
2022/04/30 00:44:27;;;;;;;;;;;;;;;18.67;60.07;99124.22;2085789;28;20015;-46
2022/04/30 00:45:28;;;;;;;;;;;;;;;18.66;60.28;99130.59;2087031;28;20012;-45
2022/04/30 00:46:29;;;;;;;;;;;;;;;18.67;60.22;99129.59;2083169;28;19954;-46
2022/04/30 00:47:30;;;;;;;;;;;;;;;18.65;60.11;99126.25;2089101;28;20349;-46
2022/04/30 00:48:33;;;;;;;;;;;;;;;18.66;60.16;99125.22;2088034;28;19925;-46
2022/04/30 00:49:34;;;;;;;;;;;;;;;18.68;60.05;99133.94;2088288;28;19963;-48
2022/04/30 00:50:37;;;;;;;;;;;;;;;18.66;60.18;99127.91;2087728;28;19932;-46
2022/04/30 00:51:38;;;;;;;;;;;;;;;18.67;60.03;99129.59;2083167;28;19932;-46
2022/04/30 00:52:40;;;;;;;;;;;;;;;18.66;60.34;99133.28;2088699;28;20349;-45
2022/04/30 00:53:43;;;;;;;;;;;;;;;18.66;60.25;99133.28;2087923;28;20036;-46
2022/04/30 00:54:47;;;;;;;;;;;;;;;18.66;60.08;99134.13;2090027;28;20407;-46
2022/04/30 00:55:48;;;;;;;;;;;;;;;18.65;60.40;99124.41;2082994;28;20996;-46
2022/04/30 00:56:51;;;;;;;;;;;;;;;18.67;60.22;99129.59;2086278;28;20426;-45
2022/04/30 00:57:54;;;;;;;;;;;;;;;18.64;60.15;99130.81;2085644;28;20066;-48
2022/04/30 00:58:56;;;;;;;;;;;;;;;18.64;60.52;99128.13;2086953;28;19929;-45
2022/04/30 00:59:59;;;;;;;;;;;;;;;18.65;60.34;99126.25;2086019;28;20035;-45
2022/04/30 01:01:02;;;;;;;;;;;;;;;18.65;60.35;99128.94;2087605;28;20023;-45
2022/04/30 01:02:03;;;;;;;;;;;;;;;18.64;60.24;99124.59;2086011;28;19960;-51
2022/04/30 01:03:04;;;;;;;;;;;;;;;18.64;60.15;99129.97;2079572;28;19936;-46
2022/04/30 01:04:07;;;;;;;;;;;;;;;18.63;60.04;99129.13;2079334;28;19990;-46
2022/04/30 01:05:10;;;;;;;;;;;;;;;18.63;60.30;99128.31;2069194;28;19931;-47
2022/04/30 01:06:12;;;;;;;;;;;;;;;18.62;60.32;99126.66;2079630;28;19925;-45
2022/04/30 01:07:14;;;;;;;;;;;;;;;18.63;60.26;99128.31;2086146;28;19929;-45
2022/04/30 01:08:15;;;;;;;;;;;;;;;18.63;60.43;99122.94;2089361;28;19924;-46
2022/04/30 01:09:17;;;;;;;;;;;;;;;18.62;60.04;99121.28;2085409;28;19929;-46
2022/04/30 01:10:18;;;;;;;;;;;;;;;18.62;60.15;99110.53;2086862;28;19924;-46
2022/04/30 01:11:20;;;;;;;;;;;;;;;18.62;60.14;99119.41;2083199;28;19928;-45
2022/04/30 01:12:22;;;;;;;;;;;;;;;18.63;60.26;99112.19;2082888;28;20022;-45
2022/04/30 01:13:25;;;;;;;;;;;;;;;18.62;59.95;99122.09;2089209;28;22893;-45
2022/04/30 01:14:27;;;;;;;;;;;;;;;18.64;60.26;99113.88;2085921;28;19939;-45
2022/04/30 01:15:28;;;;;;;;;;;;;;;18.63;59.90;99121.06;2089725;28;21032;-45
2022/04/30 01:16:29;;;;;;;;;;;;;;;18.62;60.12;99126.66;2087061;28;20009;-44
2022/04/30 01:17:31;;;;;;;;;;;;;;;18.61;60.06;99124.97;2086069;28;19924;-45
2022/04/30 01:18:33;;;;;;;;;;;;;;;18.61;60.15;99124.97;2087475;28;20498;-45
2022/04/30 01:19:37;;;;;;;;;;;;;;;18.60;60.30;99123.31;2086279;28;19932;-46
2022/04/30 01:20:38;;;;;;;;;;;;;;;18.60;60.25;99123.31;2085788;28;19928;-46
2022/04/30 01:21:42;;;;;;;;;;;;;;;18.58;60.03;99126.19;2088299;28;19929;-48
2022/04/30 01:22:58;;;;;;;;;;;;;;;18.60;59.98;99128.69;2084090;28;19940;-44
2022/04/30 01:24:00;;;;;;;;;;;;;;;18.60;60.12;99131.38;2086832;28;20047;-45
2022/04/30 01:25:00;;;;;;;;;;;;;;;18.58;59.99;99128.03;2089795;28;19977;-46
2022/04/30 01:26:02;;;;;;;;;;;;;;;18.59;60.24;99130.53;2086512;28;19983;-48
2022/04/30 01:27:05;;;;;;;;;;;;;;;18.59;60.06;99130.53;2085194;28;19925;-45
2022/04/30 01:28:07;;;;;;;;;;;;;;;18.59;60.17;99127.84;2088154;28;19928;-46
2022/04/30 01:29:08;;;;;;;;;;;;;;;18.60;60.15;99128.69;2084660;28;19929;-46
2022/04/30 01:30:11;;;;;;;;;;;;;;;18.59;60.25;99125.16;2078926;28;19935;-46
2022/04/30 01:37:46;;;;;;;;;;;;;;;18.57;59.97;99124.53;2084831;28;19925;-48
2022/04/30 01:38:48;;;;;;;;;;;;;;;18.56;60.02;99124.72;2083070;28;20008;-47
2022/04/30 01:39:52;;;;;;;;;;;;;;;18.56;60.32;99128.25;2083432;28;21258;-46
2022/04/30 01:40:53;;;;;;;;;;;;;;;18.57;60.12;99126.38;2082002;28;21621;-46
2022/04/30 01:41:54;;;;;;;;;;;;;;;18.57;60.32;99126.38;2087629;28;19934;-45
2022/04/30 01:42:59;;;;;;;;;;;;;;;18.56;60.20;99122.88;2085500;28;20885;-46
2022/04/30 01:44:00;;;;;;;;;;;;;;;18.57;60.05;99119.16;2083937;28;19989;-45
2022/04/30 01:45:04;;;;;;;;;;;;;;;18.58;60.19;99117.28;2079107;28;19935;-45
2022/04/30 01:46:05;;;;;;;;;;;;;;;18.57;60.29;99126.38;2078273;28;19924;-44
2022/04/30 01:47:06;;;;;;;;;;;;;;;18.57;59.87;99111.09;2085853;28;20987;-47
2022/04/30 01:48:12;;;;;;;;;;;;;;;18.56;60.24;99119.34;2086532;28;20015;-47
2022/04/30 01:49:16;;;;;;;;;;;;;;;18.56;60.13;99127.41;2086602;28;19937;-45
2022/04/30 01:50:17;;;;;;;;;;;;;;;18.56;60.20;99122.06;2082721;28;19932;-45
2022/04/30 01:51:18;;;;;;;;;;;;;;;18.53;60.26;99124.09;2082483;28;20913;-47
2022/04/30 01:52:19;;;;;;;;;;;;;;;18.53;60.21;99124.09;2083970;28;20006;-47
2022/04/30 01:53:20;;;;;;;;;;;;;;;18.53;60.06;99124.09;2085691;28;19925;-47
2022/04/30 01:54:23;;;;;;;;;;;;;;;18.54;60.22;99125.75;2089257;28;19940;-46
2022/04/30 01:55:24;;;;;;;;;;;;;;;18.54;60.17;99122.22;2084551;28;19939;-44
2022/04/30 01:56:25;;;;;;;;;;;;;;;18.57;60.04;99121.84;2083007;28;20081;-46
2022/04/30 01:57:26;;;;;;;;;;;;;;;18.56;60.12;99122.88;2083268;28;19933;-45
2022/04/30 01:58:28;;;;;;;;;;;;;;;18.57;59.85;99116.47;2087623;28;19944;-47
2022/04/30 01:59:28;;;;;;;;;;;;;;;18.56;59.99;99120.19;2082427;28;19964;-46
2022/04/30 02:00:30;;;;;;;;;;;;;;;18.54;59.97;99120.38;2085374;28;19928;-47
2022/04/30 02:01:32;;;;;;;;;;;;;;;18.53;60.20;99121.41;2081641;28;19936;-45
2022/04/30 02:02:35;;;;;;;;;;;;;;;18.53;60.09;99116.03;2087368;28;19925;-45
2022/04/30 02:03:37;;;;;;;;;;;;;;;18.53;60.12;99118.72;2084703;28;20020;-45
2022/04/30 02:04:40;;;;;;;;;;;;;;;18.52;60.09;99119.72;2082700;28;20374;-44
2022/04/30 02:05:41;;;;;;;;;;;;;;;18.53;59.83;99116.03;2087358;28;19941;-48
2022/04/30 02:06:43;;;;;;;;;;;;;;;18.53;60.10;99118.72;2084809;28;19936;-44
2022/04/30 02:07:45;;;;;;;;;;;;;;;18.53;60.11;99118.72;2086375;28;20634;-44
2022/04/30 02:08:47;;;;;;;;;;;;;;;18.53;60.11;99117.88;2084469;28;19933;-46
2022/04/30 02:09:51;;;;;;;;;;;;;;;18.53;59.93;99115.19;2082552;28;20564;-47
2022/04/30 02:10:52;;;;;;;;;;;;;;;18.52;60.13;99110.81;2086059;28;19924;-45
2022/04/30 02:11:53;;;;;;;;;;;;;;;18.52;60.12;99117.03;2084153;28;19933;-46
2022/04/30 02:12:55;;;;;;;;;;;;;;;18.52;60.11;99114.34;2077657;28;19968;-46
2022/04/30 02:13:59;;;;;;;;;;;;;;;18.52;59.95;99119.72;2082456;28;20005;-45
2022/04/30 02:15:00;;;;;;;;;;;;;;;18.52;60.07;99103.59;2084066;28;20024;-45
2022/04/30 02:16:02;;;;;;;;;;;;;;;18.52;60.10;99111.66;2082269;28;19924;-47
2022/04/30 02:17:03;;;;;;;;;;;;;;;18.50;60.03;99116.41;2076272;28;20600;-50
2022/04/30 02:18:04;;;;;;;;;;;;;;;18.51;60.21;99114.56;2085629;28;19932;-45
2022/04/30 02:19:06;;;;;;;;;;;;;;;18.51;59.86;99112.69;2080665;28;20565;-47
2022/04/30 02:20:24;;;;;;;;;;;;;;;18.52;59.94;99108.16;2085855;28;20535;-46
2022/04/30 02:21:30;;;;;;;;;;;;;;;18.49;60.01;99113.91;2084441;28;19964;-45
2022/04/30 02:22:32;;;;;;;;;;;;;;;18.48;60.19;99110.38;2081868;28;19931;-48
2022/04/30 02:23:34;;;;;;;;;;;;;;;18.49;60.17;99116.59;2083812;28;19929;-46
2022/04/30 02:24:35;;;;;;;;;;;;;;;18.51;60.07;99118.06;2084866;28;19925;-46
2022/04/30 02:25:38;;;;;;;;;;;;;;;18.51;60.13;99106.50;2086836;28;20016;-47
2022/04/30 02:26:39;;;;;;;;;;;;;;;18.50;60.04;99108.34;2085911;28;19929;-47
2022/04/30 02:27:42;;;;;;;;;;;;;;;18.50;60.00;99108.34;2083352;28;20685;-48
2022/04/30 02:28:44;;;;;;;;;;;;;;;18.50;60.21;99108.34;2088965;28;19928;-49
2022/04/30 02:29:44;;;;;;;;;;;;;;;18.50;60.01;99105.66;2084549;28;20002;-45
2022/04/30 02:30:47;;;;;;;;;;;;;;;18.49;59.98;99106.66;2085969;28;20367;-46
2022/04/30 02:31:48;;;;;;;;;;;;;;;18.48;59.97;99110.38;2082690;28;19929;-46
2022/04/30 02:32:50;;;;;;;;;;;;;;;18.48;60.10;99109.56;2084290;28;20028;-47
2022/04/30 02:33:55;;;;;;;;;;;;;;;18.48;59.88;99110.38;2079783;28;20017;-47
2022/04/30 02:34:56;;;;;;;;;;;;;;;18.47;59.98;99113.25;2086788;28;19929;-44
2022/04/30 02:35:58;;;;;;;;;;;;;;;18.47;59.97;99100.69;2085884;28;20023;-45
2022/04/30 02:36:59;;;;;;;;;;;;;;;18.49;60.11;99100.47;2080859;28;19925;-52
2022/04/30 02:38:03;;;;;;;;;;;;;;;18.47;59.97;99103.38;2086286;28;19936;-45
2022/04/30 02:39:03;;;;;;;;;;;;;;;18.46;59.90;99107.06;2087870;28;19990;-46
2022/04/30 02:40:05;;;;;;;;;;;;;;;18.48;59.91;99099.66;2084422;28;19946;-48
2022/04/30 02:41:07;;;;;;;;;;;;;;;18.47;59.90;99105.19;2086899;28;19939;-49
2022/04/30 02:42:09;;;;;;;;;;;;;;;18.47;60.10;99100.69;2078074;28;19996;-48
2022/04/30 02:43:11;;;;;;;;;;;;;;;18.49;59.85;99100.47;2084606;28;20612;-49
2022/04/30 02:44:11;;;;;;;;;;;;;;;18.47;60.11;99092.63;2084237;28;20084;-45
2022/04/30 02:45:13;;;;;;;;;;;;;;;18.47;59.89;99098.00;2083707;28;19939;-44
2022/04/30 02:46:14;;;;;;;;;;;;;;;18.47;59.93;99087.25;2080422;28;21240;-44
2022/04/30 02:47:16;;;;;;;;;;;;;;;18.46;60.00;99090.94;2082029;28;20474;-47
2022/04/30 02:48:16;;;;;;;;;;;;;;;18.45;59.89;99089.28;2086282;28;20040;-48
2022/04/30 02:49:19;;;;;;;;;;;;;;;18.46;60.21;99093.63;2085510;28;20426;-46
2022/04/30 02:50:20;;;;;;;;;;;;;;;18.46;59.97;99084.75;2086282;28;20502;-46
2022/04/30 02:51:21;;;;;;;;;;;;;;;18.46;59.83;99090.94;2079571;28;19925;-48
2022/04/30 02:52:22;;;;;;;;;;;;;;;18.46;59.97;99090.13;2081736;28;19933;-49
2022/04/30 02:53:23;;;;;;;;;;;;;;;18.47;60.02;99087.25;2084664;28;20068;-47
2022/04/30 02:54:24;;;;;;;;;;;;;;;18.44;59.71;99086.78;2087114;28;20846;-49
2022/04/30 02:55:25;;;;;;;;;;;;;;;18.46;59.96;99079.38;2082915;28;19955;-48
2022/04/30 02:56:28;;;;;;;;;;;;;;;18.43;60.04;99080.59;2084774;28;19929;-47
2022/04/30 02:57:38;;;;;;;;;;;;;;;18.44;60.06;99086.78;2082852;28;19978;-46
2022/04/30 02:59:58;;;;;;;;;;;;;;;18.49;59.86;99085.19;2082404;28;19928;-47
2022/04/30 03:01:00;;;;;;;;;;;;;;;18.45;59.69;99078.53;2085707;28;20035;-45
2022/04/30 03:02:02;;;;;;;;;;;;;;;18.46;59.91;99079.38;2078621;28;19933;-48
2022/04/30 03:03:02;;;;;;;;;;;;;;;18.47;60.00;99075.66;2082698;28;19928;-50
2022/04/30 03:04:04;;;;;;;;;;;;;;;18.44;59.89;99082.25;2086056;28;19935;-49
2022/04/30 03:05:06;;;;;;;;;;;;;;;18.44;59.92;99081.41;2081486;28;19940;-49
2022/04/30 03:06:09;;;;;;;;;;;;;;;18.42;59.82;99084.31;2084934;28;19947;-50
2022/04/30 03:07:11;;;;;;;;;;;;;;;18.43;59.85;99085.94;2086640;28;19931;-47
2022/04/30 03:08:13;;;;;;;;;;;;;;;18.42;60.13;99076.25;2083735;28;20443;-48
2022/04/30 03:09:14;;;;;;;;;;;;;;;18.43;60.08;99074.38;2082677;28;20335;-43
2022/04/30 03:10:16;;;;;;;;;;;;;;;18.43;59.85;99072.53;2082187;28;19932;-43
2022/04/30 03:11:19;;;;;;;;;;;;;;;18.47;59.78;99078.34;2077646;28;19924;-44
2022/04/30 03:12:22;;;;;;;;;;;;;;;18.47;59.82;99072.97;2085483;28;20010;-44
2022/04/30 03:13:23;;;;;;;;;;;;;;;18.47;59.81;99073.81;2083461;28;21071;-43
2022/04/30 03:14:25;;;;;;;;;;;;;;;18.46;59.93;99069.44;2083317;28;19963;-44
2022/04/30 03:15:29;;;;;;;;;;;;;;;18.44;59.93;99066.16;2082293;28;19970;-43
2022/04/30 03:21:47;;;;;;;;;;;;;;;18.45;59.84;99066.97;2079810;28;20680;-46
2022/04/30 03:22:48;;;;;;;;;;;;;;;18.44;59.85;99067.97;2078532;28;20986;-45
2022/04/30 03:23:51;;;;;;;;;;;;;;;18.41;59.91;99069.19;2086389;28;19936;-46
2022/04/30 03:24:52;;;;;;;;;;;;;;;18.42;59.77;99068.19;2081006;28;19929;-43
2022/04/30 03:25:53;;;;;;;;;;;;;;;18.44;59.75;99071.53;2085425;28;20411;-44
2022/04/30 03:26:54;;;;;;;;;;;;;;;18.45;60.06;99069.66;2084221;28;19933;-43
2022/04/30 03:27:57;;;;;;;;;;;;;;;18.42;59.74;99068.19;2084946;28;19929;-46
2022/04/30 03:28:57;;;;;;;;;;;;;;;18.41;59.96;99065.69;2084055;28;21198;-45
2022/04/30 03:29:59;;;;;;;;;;;;;;;18.43;59.98;99066.31;2081789;28;19940;-44
2022/04/30 03:31:01;;;;;;;;;;;;;;;18.41;59.95;99061.13;2084561;28;19925;-48
2022/04/30 03:32:02;;;;;;;;;;;;;;;18.39;60.09;99057.84;2084126;28;20302;-47
2022/04/30 03:33:03;;;;;;;;;;;;;;;18.41;59.78;99065.69;2086915;28;19990;-46
2022/04/30 03:34:05;;;;;;;;;;;;;;;18.38;60.05;99058.84;2082982;28;19933;-44
2022/04/30 03:35:06;;;;;;;;;;;;;;;18.38;59.91;99061.53;2087360;28;19958;-45
2022/04/30 03:36:10;;;;;;;;;;;;;;;18.37;59.90;99065.25;2078586;28;20363;-44
2022/04/30 03:37:11;;;;;;;;;;;;;;;18.39;59.96;99057.00;2083747;28;19932;-44
2022/04/30 03:38:12;;;;;;;;;;;;;;;18.40;59.91;99056.78;2083315;28;19974;-44
2022/04/30 03:39:14;;;;;;;;;;;;;;;18.41;59.84;99060.31;2079499;28;19933;-46
2022/04/30 03:40:14;;;;;;;;;;;;;;;18.41;59.96;99060.31;2084448;28;19925;-45
2022/04/30 03:41:16;;;;;;;;;;;;;;;18.40;59.68;99061.34;2086354;28;20919;-43
2022/04/30 03:42:17;;;;;;;;;;;;;;;18.39;59.87;99054.31;2078639;28;20028;-45
2022/04/30 03:43:20;;;;;;;;;;;;;;;18.36;60.00;99055.53;2084028;28;19931;-45
2022/04/30 03:44:20;;;;;;;;;;;;;;;18.39;59.91;99057.00;2082170;28;19932;-46
2022/04/30 03:45:22;;;;;;;;;;;;;;;18.41;59.79;99063.00;2086876;28;19925;-46
2022/04/30 03:46:22;;;;;;;;;;;;;;;18.41;59.84;99063.00;2085720;28;20544;-45
2022/04/30 03:47:24;;;;;;;;;;;;;;;18.40;59.92;99064.03;2083009;28;19936;-47
2022/04/30 03:48:25;;;;;;;;;;;;;;;18.38;59.78;99056.16;2086269;28;20011;-47
2022/04/30 03:49:26;;;;;;;;;;;;;;;18.39;59.94;99057.84;2086465;28;19936;-44
2022/04/30 03:50:27;;;;;;;;;;;;;;;18.40;59.67;99056.78;2083492;28;19932;-45
2022/04/30 03:51:28;;;;;;;;;;;;;;;18.38;59.87;99056.16;2083282;28;20040;-47
2022/04/30 03:52:30;;;;;;;;;;;;;;;18.38;59.79;99064.22;2085022;28;19967;-45
2022/04/30 03:53:31;;;;;;;;;;;;;;;18.37;59.85;99053.66;2084265;28;19932;-47
2022/04/30 03:54:32;;;;;;;;;;;;;;;18.37;59.87;99059.88;2088287;28;20023;-45
2022/04/30 03:55:33;;;;;;;;;;;;;;;18.36;59.76;99060.91;2084630;28;19925;-45
2022/04/30 03:56:34;;;;;;;;;;;;;;;18.35;59.78;99063.78;2085324;28;20306;-46
2022/04/30 03:57:35;;;;;;;;;;;;;;;18.35;60.07;99061.91;2088734;28;19929;-46
2022/04/30 03:58:38;;;;;;;;;;;;;;;18.35;60.00;99058.41;2084085;28;19935;-47
2022/04/30 03:59:38;;;;;;;;;;;;;;;18.37;60.01;99059.88;2087947;28;20521;-44
2022/04/30 04:00:40;;;;;;;;;;;;;;;18.37;59.66;99059.88;2086983;28;19929;-46
2022/04/30 04:01:42;;;;;;;;;;;;;;;18.36;59.86;99063.59;2084597;28;19924;-44
2022/04/30 04:02:43;;;;;;;;;;;;;;;18.36;59.89;99058.22;2086343;28;20031;-45
2022/04/30 04:03:45;;;;;;;;;;;;;;;18.36;59.76;99063.59;2084394;28;19929;-44
2022/04/30 04:04:46;;;;;;;;;;;;;;;18.35;59.78;99063.78;2085049;28;19963;-46
2022/04/30 04:05:48;;;;;;;;;;;;;;;18.34;59.77;99073.69;2087355;28;20203;-47
2022/04/30 04:06:49;;;;;;;;;;;;;;;18.33;59.92;99063.97;2082898;28;19971;-46
2022/04/30 04:07:50;;;;;;;;;;;;;;;18.35;59.83;99063.78;2081608;28;20577;-46
2022/04/30 04:08:52;;;;;;;;;;;;;;;18.35;59.81;99071.81;2084782;28;19936;-46
2022/04/30 04:09:53;;;;;;;;;;;;;;;18.35;59.71;99066.44;2085502;28;20018;-45
2022/04/30 04:10:54;;;;;;;;;;;;;;;18.34;59.82;99070.16;2087254;28;20337;-45
2022/04/30 04:11:56;;;;;;;;;;;;;;;18.34;59.87;99065.63;2087759;28;19933;-46
2022/04/30 04:17:37;;;;;;;;;;;;;;;18.36;59.84;99066.28;2079497;28;19940;-46
2022/04/30 04:18:17;;;;;;;;;;;;;;;18.34;59.87;99075.53;2083226;28;19992;-49
2022/04/30 04:19:20;;;;;;;;;;;;;;;18.33;59.77;99074.72;2085203;28;19939;-44
2022/04/30 04:20:24;;;;;;;;;;;;;;;18.33;59.64;99077.41;2086423;28;19939;-44
2022/04/30 04:21:25;;;;;;;;;;;;;;;18.33;59.77;99072.03;2087795;28;19939;-47
2022/04/30 04:22:26;;;;;;;;;;;;;;;18.35;59.78;99071.81;2087478;28;19970;-48
2022/04/30 04:23:27;;;;;;;;;;;;;;;18.34;59.62;99073.69;2082836;28;19929;-47
2022/04/30 04:27:06;;;;;;;;;;;;;;;18.31;59.80;99072.22;2082023;28;20025;-48
2022/04/30 04:28:07;;;;;;;;;;;;;;;18.34;59.70;99064.81;2078520;28;20039;-51
2022/04/30 04:29:10;;;;;;;;;;;;;;;18.30;59.73;99065.19;2078784;28;19937;-46
2022/04/30 04:30:12;;;;;;;;;;;;;;;18.32;59.96;99067.66;2079540;28;19991;-49
2022/04/30 04:31:16;;;;;;;;;;;;;;;18.34;59.64;99059.44;2078627;28;19936;-49
2022/04/30 04:32:17;;;;;;;;;;;;;;;18.31;59.83;99055.28;2079060;28;19935;-47
2022/04/30 04:33:18;;;;;;;;;;;;;;;18.30;59.65;99067.88;2079132;28;19956;-45
2022/04/30 04:34:19;;;;;;;;;;;;;;;18.31;59.74;99066.00;2081367;28;19929;-46
2022/04/30 04:35:20;;;;;;;;;;;;;;;18.30;59.70;99067.00;2088481;28;19935;-45
2022/04/30 04:36:21;;;;;;;;;;;;;;;18.29;59.83;99066.19;2087992;28;19952;-50
2022/04/30 04:37:23;;;;;;;;;;;;;;;18.30;59.70;99075.06;2087972;28;19944;-47
2022/04/30 04:38:23;;;;;;;;;;;;;;;18.29;59.90;99068.88;2088043;28;19936;-49
2022/04/30 04:39:25;;;;;;;;;;;;;;;18.30;59.82;99065.19;2086980;28;19925;-50
2022/04/30 04:40:26;;;;;;;;;;;;;;;18.32;59.88;99073.03;2088066;28;20267;-47
2022/04/30 04:41:27;;;;;;;;;;;;;;;18.30;59.79;99069.69;2081852;28;20891;-48
2022/04/30 04:42:28;;;;;;;;;;;;;;;18.28;59.94;99071.75;2087710;28;19925;-48
2022/04/30 04:43:29;;;;;;;;;;;;;;;18.28;59.77;99077.13;2087876;28;20027;-48
2022/04/30 04:44:30;;;;;;;;;;;;;;;18.28;59.74;99077.97;2086485;28;19939;-46
2022/04/30 04:45:32;;;;;;;;;;;;;;;18.31;59.78;99071.38;2088779;28;20050;-49
2022/04/30 04:46:34;;;;;;;;;;;;;;;18.30;59.69;99069.69;2085387;28;20602;-50
2022/04/30 04:47:35;;;;;;;;;;;;;;;18.30;59.82;99067.00;2083571;28;19936;-47
2022/04/30 04:48:37;;;;;;;;;;;;;;;18.28;59.65;99066.41;2088724;28;19925;-49
2022/04/30 04:49:38;;;;;;;;;;;;;;;18.29;59.76;99068.88;2088166;28;19929;-50
2022/04/30 04:50:40;;;;;;;;;;;;;;;18.28;59.96;99069.09;2089699;28;19928;-47
2022/04/30 04:51:40;;;;;;;;;;;;;;;18.28;59.70;99075.28;2088164;28;19924;-46
2022/04/30 04:52:42;;;;;;;;;;;;;;;18.28;59.95;99072.59;2084792;28;19962;-49
2022/04/30 04:53:43;;;;;;;;;;;;;;;18.27;59.87;99070.09;2086480;28;19925;-47
2022/04/30 04:54:44;;;;;;;;;;;;;;;18.26;59.86;99073.81;2088472;28;19928;-49
2022/04/30 04:55:45;;;;;;;;;;;;;;;18.27;59.95;99073.59;2089226;28;19981;-47
2022/04/30 04:56:46;;;;;;;;;;;;;;;18.26;59.74;99073.81;2073528;28;20042;-48
2022/04/30 04:57:47;;;;;;;;;;;;;;;18.26;59.81;99074.63;2085325;28;20534;-46
2022/04/30 04:58:48;;;;;;;;;;;;;;;18.28;59.68;99071.75;2085997;28;19929;-48
2022/04/30 04:59:49;;;;;;;;;;;;;;;18.29;59.53;99084.16;2087914;28;19929;-52
2022/04/30 05:00:52;;;;;;;;;;;;;;;18.27;59.54;99073.59;2081056;28;19924;-48
2022/04/30 05:01:53;;;;;;;;;;;;;;;18.29;59.54;99078.78;2081680;28;19978;-46
2022/04/30 05:02:54;;;;;;;;;;;;;;;18.30;59.76;99075.06;2073919;28;20032;-48
2022/04/30 05:03:55;;;;;;;;;;;;;;;18.27;59.79;99081.66;2080939;28;20331;-47
2022/04/30 05:04:56;;;;;;;;;;;;;;;18.28;59.59;99074.44;2076631;28;20265;-47
2022/04/30 05:05:57;;;;;;;;;;;;;;;18.28;59.53;99080.66;2080583;28;19936;-46
2022/04/30 05:06:59;;;;;;;;;;;;;;;18.27;59.67;99080.81;2078240;28;19929;-47
2022/04/30 05:08:00;;;;;;;;;;;;;;;18.26;59.90;99079.16;2076205;28;19925;-49
2022/04/30 05:09:01;;;;;;;;;;;;;;;18.28;59.65;99082.50;2078354;28;19944;-47
2022/04/30 05:10:02;;;;;;;;;;;;;;;18.26;59.82;99081.84;2076700;28;19936;-47
2022/04/30 05:11:03;;;;;;;;;;;;;;;18.26;59.61;99079.16;2084743;28;19928;-53
2022/04/30 05:12:05;;;;;;;;;;;;;;;18.25;59.77;99077.53;2086248;28;19989;-47
2022/04/30 05:13:05;;;;;;;;;;;;;;;18.26;59.67;99090.75;2089108;28;20408;-46
2022/04/30 05:14:07;;;;;;;;;;;;;;;18.26;59.77;99082.69;2085814;28;20063;-46
2022/04/30 05:15:08;;;;;;;;;;;;;;;18.26;59.64;99087.22;2088679;28;19924;-52
2022/04/30 05:16:12;;;;;;;;;;;;;;;18.25;59.80;99081.03;2085323;28;20012;-45
2022/04/30 05:17:13;;;;;;;;;;;;;;;18.27;59.61;99084.34;2088699;28;19936;-50
2022/04/30 05:18:15;;;;;;;;;;;;;;;18.27;59.68;99081.66;2087670;28;19932;-52
2022/04/30 05:19:15;;;;;;;;;;;;;;;18.29;59.76;99084.16;2087481;28;20220;-45
2022/04/30 05:20:17;;;;;;;;;;;;;;;18.26;59.58;99084.53;2084304;28;20471;-44
2022/04/30 05:21:17;;;;;;;;;;;;;;;18.29;59.59;99081.47;2087796;28;19924;-46
2022/04/30 05:22:20;;;;;;;;;;;;;;;18.28;59.55;99086.03;2086851;28;19928;-48
2022/04/30 05:23:20;;;;;;;;;;;;;;;18.27;59.83;99080.81;2089287;28;19979;-51
2022/04/30 05:24:22;;;;;;;;;;;;;;;18.25;59.83;99085.56;2086294;28;20334;-49
2022/04/30 05:25:22;;;;;;;;;;;;;;;18.25;59.88;99088.25;2084976;28;19940;-48
2022/04/30 05:26:24;;;;;;;;;;;;;;;18.25;59.60;99088.25;2087265;28;20330;-50
2022/04/30 05:27:24;;;;;;;;;;;;;;;18.24;59.88;99092.78;2086606;28;19960;-49
2022/04/30 05:28:26;;;;;;;;;;;;;;;18.26;59.73;99089.91;2081654;28;19928;-48
2022/04/30 05:29:26;;;;;;;;;;;;;;;18.25;59.88;99097.13;2083499;28;19932;-50
2022/04/30 05:30:28;;;;;;;;;;;;;;;18.25;59.54;99088.25;2087977;28;20016;-46
2022/04/30 05:31:30;;;;;;;;;;;;;;;18.27;59.52;99091.56;2086664;28;20003;-51
2022/04/30 05:32:31;;;;;;;;;;;;;;;18.27;59.50;99088.88;2086525;28;19932;-46
2022/04/30 05:33:32;;;;;;;;;;;;;;;18.25;59.46;99082.88;2089101;28;20410;-47
2022/04/30 05:34:34;;;;;;;;;;;;;;;18.26;59.54;99089.91;2086651;28;19928;-49
2022/04/30 05:35:34;;;;;;;;;;;;;;;18.26;59.45;99084.53;2087534;28;20016;-44
2022/04/30 05:36:36;;;;;;;;;;;;;;;18.26;59.52;99085.38;2087726;28;19932;-50
2022/04/30 05:37:37;;;;;;;;;;;;;;;18.26;59.52;99085.38;2087020;28;20530;-49
2022/04/30 05:38:38;;;;;;;;;;;;;;;18.24;59.54;99083.91;2088171;28;19933;-47
2022/04/30 05:39:39;;;;;;;;;;;;;;;18.26;59.40;99079.16;2084524;28;19929;-46
2022/04/30 05:40:40;;;;;;;;;;;;;;;18.26;59.72;99081.84;2084417;28;20022;-47
2022/04/30 05:41:41;;;;;;;;;;;;;;;18.26;59.82;99092.59;2087156;28;19932;-45